Time;durP1;ratioP1;P1;durP2;ratioP2;P2;SDS_P1;SDS_P2;PMS_P1;PMS_P2;Temp;Humidity;BMP_temperature;BMP_pressure;BME280_temperature;BME280_humidity;BME280_pressure;Samples;Min_cycle;Max_cycle;Signal;HPM_P1;HPM_P2
2024/03/04 00:01:15;;;;;;;4.22;2.88;;;4.40;99.90;;;;;;5044896;28;20099;-69
2024/03/04 00:03:41;;;;;;;5.35;3.13;;;4.40;99.90;;;;;;5040581;28;20553;-69
2024/03/04 00:06:07;;;;;;;3.47;3.05;;;4.30;99.90;;;;;;5042313;28;20014;-67
2024/03/04 00:08:32;;;;;;;6.97;3.47;;;4.30;99.90;;;;;;5040638;28;20036;-67
2024/03/04 00:10:58;;;;;;;3.35;3.05;;;4.30;99.90;;;;;;5043597;28;20390;-68
2024/03/04 00:13:24;;;;;;;5.65;3.17;;;4.40;99.90;;;;;;5038415;28;20034;-66
2024/03/04 00:15:49;;;;;;;5.07;3.33;;;4.30;99.90;;;;;;5044417;28;20519;-68
2024/03/04 00:18:15;;;;;;;3.13;2.90;;;3.90;99.90;;;;;;5035526;28;20114;-67
2024/03/04 00:20:41;;;;;;;3.40;2.83;;;3.60;99.90;;;;;;5037635;28;20055;-69
2024/03/04 00:23:06;;;;;;;5.93;3.30;;;3.40;99.90;;;;;;5037775;28;20108;-68
2024/03/04 00:25:32;;;;;;;3.03;2.72;;;3.50;99.90;;;;;;5038256;28;20036;-66
2024/03/04 00:27:58;;;;;;;3.95;3.30;;;3.70;99.90;;;;;;5037674;28;20036;-68
2024/03/04 00:30:26;;;;;;;4.68;3.20;;;3.80;99.90;;;;;;5035261;28;20440;-67
2024/03/04 00:32:52;;;;;;;;;;;3.90;99.90;;;;;;5034889;28;20441;-68
2024/03/04 00:35:19;;;;;;;3.10;2.25;;;4.00;99.90;;;;;;5037178;28;19919;-67
2024/03/04 00:37:45;;;;;;;2.95;2.35;;;4.00;99.90;;;;;;5031893;28;20037;-69
2024/03/04 00:40:12;;;;;;;2.33;2.13;;;4.10;99.90;;;;;;5038273;28;20071;-67
2024/03/04 00:42:38;;;;;;;4.20;2.92;;;4.00;99.90;;;;;;5041866;28;20033;-68
2024/03/04 00:45:05;;;;;;;3.72;3.30;;;3.90;99.90;;;;;;5045048;28;20329;-67
2024/03/04 00:47:32;;;;;;;7.55;3.10;;;3.70;99.90;;;;;;5043374;28;20079;-67
2024/03/04 00:49:58;;;;;;;3.80;2.60;;;3.70;99.90;;;;;;5042481;28;20386;-69
2024/03/04 00:52:23;;;;;;;3.58;2.90;;;3.80;99.90;;;;;;5044843;28;20017;-66
2024/03/04 00:54:50;;;;;;;3.60;3.00;;;3.90;99.90;;;;;;5039048;28;20021;-68
2024/03/04 00:57:15;;;;;;;3.50;3.20;;;3.90;99.90;;;;;;5041316;28;20331;-67
2024/03/04 00:59:41;;;;;;;4.13;3.53;;;3.90;99.90;;;;;;5039958;28;20068;-67
2024/03/04 01:02:07;;;;;;;4.25;2.85;;;3.90;99.90;;;;;;5038571;28;20482;-67
2024/03/04 01:04:34;;;;;;;3.83;3.00;;;4.00;99.90;;;;;;5038681;28;20041;-67
2024/03/04 01:06:59;;;;;;;2.80;2.53;;;4.00;99.90;;;;;;5041334;28;20222;-70
2024/03/04 01:09:25;;;;;;;3.42;2.97;;;3.80;99.90;;;;;;5044126;28;20036;-69
2024/03/04 01:11:53;;;;;;;3.05;2.38;;;3.80;99.90;;;;;;5040157;28;20017;-68
2024/03/04 01:14:22;;;;;;;3.55;2.92;;;3.80;99.90;;;;;;5040911;28;20520;-68
2024/03/04 01:16:49;;;;;;;4.07;2.50;;;3.70;99.90;;;;;;5040208;28;20191;-68
2024/03/04 01:19:15;;;;;;;4.55;3.10;;;3.70;99.90;;;;;;5039146;28;20414;-67
2024/03/04 01:21:41;;;;;;;3.13;2.42;;;3.70;99.90;;;;;;5040339;28;20037;-67
2024/03/04 01:24:06;;;;;;;4.45;2.88;;;3.80;99.90;;;;;;5038644;28;20036;-66
2024/03/04 01:26:32;;;;;;;4.80;3.05;;;3.80;99.90;;;;;;5042838;28;20394;-67
2024/03/04 01:28:58;;;;;;;4.65;3.20;;;3.90;99.90;;;;;;5040578;28;20021;-69
2024/03/04 01:31:24;;;;;;;3.85;2.85;;;3.90;99.90;;;;;;5043037;28;20071;-68
2024/03/04 01:33:50;;;;;;;3.85;2.90;;;3.90;99.90;;;;;;5044265;28;20497;-68
2024/03/04 01:36:16;;;;;;;4.40;3.28;;;3.90;99.90;;;;;;5043231;28;20074;-67
2024/03/04 01:38:42;;;;;;;3.75;3.10;;;3.90;99.90;;;;;;5043009;28;20037;-68
2024/03/04 01:41:08;;;;;;;4.80;3.22;;;4.00;99.90;;;;;;5037161;28;20025;-67
2024/03/04 01:43:34;;;;;;;2.53;2.35;;;4.00;99.90;;;;;;5042231;28;20380;-68
2024/03/04 01:45:59;;;;;;;3.53;2.95;;;4.00;99.90;;;;;;5034478;28;20033;-67
2024/03/04 01:48:26;;;;;;;4.53;3.35;;;3.30;99.90;;;;;;5042631;28;20056;-67
2024/03/04 01:50:54;;;;;;;9.40;3.42;;;3.40;99.90;;;;;;5042558;28;20033;-67
2024/03/04 01:53:22;;;;;;;4.22;3.10;;;3.50;99.90;;;;;;5041823;28;20020;-66
2024/03/04 01:56:02;;;;;;;4.50;3.20;;;3.50;99.90;;;;;;5040367;28;20394;-68
2024/03/04 01:58:28;;;;;;;4.53;2.85;;;3.60;99.90;;;;;;5042138;28;20029;-68
2024/03/04 02:00:55;;;;;;;4.72;2.85;;;3.70;99.90;;;;;;5041501;28;20394;-67
2024/03/04 02:03:22;;;;;;;4.22;3.20;;;3.60;99.90;;;;;;5041554;28;20108;-67
2024/03/04 02:05:49;;;;;;;4.93;3.22;;;3.60;99.90;;;;;;5038568;28;20402;-66
2024/03/04 02:08:19;;;;;;;7.90;3.83;;;3.60;99.90;;;;;;5043276;28;20321;-66
2024/03/04 02:10:47;;;;;;;6.32;3.10;;;3.60;99.90;;;;;;5037493;28;20029;-67
2024/03/04 02:13:13;;;;;;;6.37;4.10;;;3.60;99.90;;;;;;5045822;28;20559;-67
2024/03/04 02:15:39;;;;;;;5.13;3.83;;;3.70;99.90;;;;;;5046174;28;20033;-66
2024/03/04 02:18:09;;;;;;;7.20;4.18;;;3.70;99.90;;;;;;5042638;28;20037;-66
2024/03/04 02:20:42;;;;;;;6.60;3.30;;;3.80;99.90;;;;;;5040861;28;20330;-67
2024/03/04 02:23:10;;;;;;;7.18;3.92;;;3.80;99.90;;;;;;5041281;28;20104;-66
2024/03/04 02:25:36;;;;;;;7.35;4.03;;;3.90;99.90;;;;;;5045253;28;20028;-68
2024/03/04 02:28:03;;;;;;;6.03;3.92;;;3.90;99.90;;;;;;5044912;28;20107;-68
2024/03/04 02:30:31;;;;;;;4.53;3.70;;;3.80;99.90;;;;;;5046416;28;20021;-67
2024/03/04 02:32:58;;;;;;;6.40;3.67;;;3.80;99.90;;;;;;5044837;28;20147;-67
2024/03/04 02:35:29;;;;;;;4.30;3.42;;;3.80;99.90;;;;;;5043581;28;20075;-67
2024/03/04 02:37:59;;;;;;;6.50;3.47;;;3.80;99.90;;;;;;5040643;28;20130;-68
2024/03/04 02:40:24;;;;;;;7.13;4.22;;;3.80;99.90;;;;;;5042052;28;20039;-68
2024/03/04 02:42:50;;;;;;;9.52;4.80;;;3.80;99.90;;;;;;5044409;28;20033;-69
2024/03/04 02:45:16;;;;;;;7.57;4.93;;;3.80;99.90;;;;;;5045682;28;20485;-67
2024/03/04 02:47:42;;;;;;;6.95;5.43;;;3.80;99.90;;;;;;5047453;28;20666;-69
2024/03/04 02:50:08;;;;;;;7.53;4.45;;;3.80;99.90;;;;;;5042989;28;20104;-69
2024/03/04 02:52:33;;;;;;;7.72;5.00;;;3.70;99.90;;;;;;5045133;28;20028;-68
2024/03/04 02:55:00;;;;;;;9.25;4.80;;;3.70;99.90;;;;;;5044586;28;20161;-71
2024/03/04 02:57:25;;;;;;;8.95;5.35;;;3.70;99.90;;;;;;5042424;28;20040;-68
2024/03/04 02:59:51;;;;;;;10.35;4.15;;;3.80;99.90;;;;;;5042345;28;20025;-68
2024/03/04 03:02:17;;;;;;;8.27;4.60;;;3.80;99.90;;;;;;5039358;28;20038;-68
2024/03/04 03:04:43;;;;;;;7.03;4.05;;;3.70;99.90;;;;;;5044660;28;20526;-67
2024/03/04 03:07:09;;;;;;;10.27;5.15;;;3.70;99.90;;;;;;5046085;28;20104;-66
2024/03/04 03:09:34;;;;;;;8.25;5.72;;;3.70;99.90;;;;;;5043500;28;20037;-68
2024/03/04 03:12:00;;;;;;;9.68;5.47;;;3.70;99.90;;;;;;5045409;28;20037;-67
2024/03/04 03:14:26;;;;;;;6.22;4.60;;;3.70;99.90;;;;;;5043794;28;20569;-67
2024/03/04 03:16:52;;;;;;;8.80;5.47;;;3.60;99.90;;;;;;5042929;28;20490;-67
2024/03/04 03:19:25;;;;;;;8.48;5.10;;;3.70;99.90;;;;;;5042244;28;20040;-66
2024/03/04 03:21:52;;;;;;;6.85;5.13;;;3.70;99.90;;;;;;5045744;28;20040;-67
2024/03/04 03:24:22;;;;;;;9.23;4.78;;;3.80;99.90;;;;;;5042825;28;20094;-67
2024/03/04 03:26:48;;;;;;;9.38;4.47;;;3.90;99.90;;;;;;5045825;28;20025;-67
2024/03/04 03:29:14;;;;;;;5.80;3.75;;;3.90;99.90;;;;;;5042304;28;20341;-68
2024/03/04 03:31:39;;;;;;;6.28;3.80;;;4.00;99.90;;;;;;5039319;28;20423;-70
2024/03/04 03:34:05;;;;;;;5.93;3.70;;;4.00;99.90;;;;;;5044009;28;20516;-68
2024/03/04 03:36:31;;;;;;;5.85;3.70;;;4.00;99.90;;;;;;5046230;28;20390;-68
2024/03/04 03:38:57;;;;;;;4.55;3.55;;;4.00;99.90;;;;;;5046383;28;20179;-68
2024/03/04 03:41:22;;;;;;;5.03;3.40;;;4.00;99.90;;;;;;5044825;28;20061;-68
2024/03/04 03:43:48;;;;;;;6.25;3.67;;;4.00;99.90;;;;;;5045856;28;20469;-68
2024/03/04 03:46:14;;;;;;;4.07;3.22;;;4.10;99.90;;;;;;5043669;28;20128;-67
2024/03/04 03:48:43;;;;;;;6.35;4.47;;;4.20;99.90;;;;;;5041416;28;20035;-69
2024/03/04 03:51:09;;;;;;;7.30;3.67;;;4.20;99.90;;;;;;5041694;28;20304;-67
2024/03/04 03:53:34;;;;;;;4.93;3.70;;;4.20;99.90;;;;;;5042453;28;20035;-67
2024/03/04 03:56:04;;;;;;;4.25;3.03;;;4.20;99.90;;;;;;5044484;28;20414;-68
2024/03/04 03:58:29;;;;;;;6.93;3.85;;;4.20;99.90;;;;;;5046721;28;20059;-67
2024/03/04 04:00:55;;;;;;;6.00;3.85;;;4.20;99.90;;;;;;5040522;28;20037;-68
2024/03/04 04:03:21;;;;;;;6.38;4.57;;;4.30;99.90;;;;;;5044859;28;20036;-67
2024/03/04 04:05:47;;;;;;;14.88;7.85;;;4.20;99.90;;;;;;5045837;28;20437;-68
2024/03/04 04:08:13;;;;;;;11.15;5.43;;;4.30;99.90;;;;;;5044267;28;20512;-67
2024/03/04 04:10:39;;;;;;;7.55;4.68;;;4.20;99.90;;;;;;5046382;28;20482;-67
2024/03/04 04:13:05;;;;;;;5.97;4.45;;;4.20;99.90;;;;;;5043727;28;20044;-68
2024/03/04 04:15:30;;;;;;;11.73;10.10;;;4.10;99.90;;;;;;5045415;28;20044;-67
2024/03/04 04:17:57;;;;;;;11.38;7.82;;;4.20;99.90;;;;;;5043591;28;20124;-68
2024/03/04 04:20:23;;;;;;;11.27;7.95;;;4.20;99.90;;;;;;5047873;28;20154;-71
2024/03/04 04:22:50;;;;;;;6.43;5.70;;;4.20;99.90;;;;;;5046569;28;20052;-67
2024/03/04 04:25:16;;;;;;;8.32;5.28;;;4.20;99.90;;;;;;5051826;28;20084;-69
2024/03/04 04:27:42;;;;;;;10.15;8.15;;;4.30;99.90;;;;;;5052293;28;20044;-70
2024/03/04 04:30:09;;;;;;;5.40;4.90;;;4.30;99.90;;;;;;5055724;28;20543;-70
2024/03/04 04:32:35;;;;;;;6.10;4.43;;;4.30;99.90;;;;;;5053219;28;20029;-71
2024/03/04 04:35:03;;;;;;;6.10;4.07;;;4.30;99.90;;;;;;5057362;28;20092;-69
2024/03/04 04:37:29;;;;;;;5.00;4.07;;;4.30;99.90;;;;;;5049238;28;20025;-70
2024/03/04 04:39:55;;;;;;;5.00;3.75;;;4.30;99.90;;;;;;5042350;28;20494;-70
2024/03/04 04:42:22;;;;;;;6.50;3.90;;;4.20;99.90;;;;;;5045997;28;20025;-70
2024/03/04 04:44:48;;;;;;;5.97;3.95;;;4.20;99.90;;;;;;5046047;28;20036;-70
2024/03/04 04:47:13;;;;;;;6.72;3.47;;;4.20;99.90;;;;;;5047740;28;20470;-67
2024/03/04 04:49:39;;;;;;;8.43;4.10;;;4.20;99.90;;;;;;5041411;28;20497;-69
2024/03/04 04:52:05;;;;;;;6.53;3.72;;;4.20;99.90;;;;;;5044473;28;20545;-69
2024/03/04 04:54:30;;;;;;;4.93;3.05;;;4.10;99.90;;;;;;5047028;28;20029;-68
2024/03/04 04:56:56;;;;;;;6.18;3.90;;;4.20;99.90;;;;;;5043514;28;20040;-68
2024/03/04 04:59:22;;;;;;;5.38;3.42;;;4.10;99.90;;;;;;5043175;28;20612;-67
2024/03/04 05:01:47;;;;;;;7.13;3.80;;;4.10;99.90;;;;;;5041763;28;20036;-67
2024/03/04 05:04:14;;;;;;;6.22;4.28;;;4.10;99.90;;;;;;5043401;28;20033;-67
2024/03/04 05:06:40;;;;;;;10.90;2.85;;;4.10;99.90;;;;;;5039995;28;20040;-70
2024/03/04 05:09:06;;;;;;;7.13;3.95;;;4.10;99.90;;;;;;5043212;28;20017;-68
2024/03/04 05:11:32;;;;;;;5.88;3.85;;;4.10;99.90;;;;;;5039690;28;20098;-67
2024/03/04 05:13:59;;;;;;;5.70;4.72;;;4.10;99.90;;;;;;5040290;28;20100;-69
2024/03/04 05:16:25;;;;;;;8.10;4.28;;;4.20;99.90;;;;;;5043749;28;20032;-66
2024/03/04 05:18:50;;;;;;;7.07;4.43;;;4.20;99.90;;;;;;5043843;28;20071;-67
2024/03/04 05:21:16;;;;;;;5.90;4.57;;;4.20;99.90;;;;;;5052849;28;20392;-67
2024/03/04 05:23:42;;;;;;;6.78;4.43;;;4.30;99.90;;;;;;5042347;28;20029;-68
2024/03/04 05:26:07;;;;;;;6.53;4.15;;;4.40;99.90;;;;;;5041758;28;20107;-68
2024/03/04 05:28:33;;;;;;;7.32;4.25;;;4.50;99.90;;;;;;5043133;28;20036;-68
2024/03/04 05:30:59;;;;;;;5.60;3.42;;;4.60;99.90;;;;;;5042748;28;20280;-68
2024/03/04 05:33:24;;;;;;;6.07;3.67;;;4.80;99.90;;;;;;5042198;28;20064;-67
2024/03/04 05:35:50;;;;;;;8.65;5.03;;;4.90;99.90;;;;;;5044182;28;20717;-66
2024/03/04 05:38:16;;;;;;;8.95;5.18;;;4.90;99.90;;;;;;5037657;28;20041;-66
2024/03/04 05:40:41;;;;;;;7.65;4.75;;;5.10;99.90;;;;;;5041263;28;20489;-69
2024/03/04 05:43:07;;;;;;;12.27;6.10;;;5.10;99.90;;;;;;5041347;28;20025;-67
2024/03/04 05:45:33;;;;;;;11.35;5.57;;;5.10;99.90;;;;;;5040528;28;20032;-68
2024/03/04 05:48:14;;;;;;;8.98;6.32;;;5.20;99.90;;;;;;5042653;28;20021;-68
2024/03/04 05:50:40;;;;;;;11.07;7.15;;;5.40;99.90;;;;;;5040123;28;20052;-69
2024/03/04 05:53:05;;;;;;;12.02;7.82;;;5.40;99.90;;;;;;5041161;28;20168;-68
2024/03/04 05:55:31;;;;;;;9.93;6.10;;;5.40;99.90;;;;;;5042017;28;20390;-68
2024/03/04 05:57:57;;;;;;;11.75;8.60;;;5.50;99.90;;;;;;5040459;28;20648;-66
2024/03/04 06:00:23;;;;;;;14.77;7.88;;;5.60;99.90;;;;;;5042177;28;20482;-67
2024/03/04 06:02:49;;;;;;;13.38;7.65;;;5.60;99.90;;;;;;5041763;28;20029;-72
2024/03/04 06:11:49;;;;;;;16.27;9.00;;;5.60;99.90;;;;;;4953528;28;20119;-69
2024/03/04 06:14:14;;;;;;;16.77;9.23;;;5.70;99.90;;;;;;4926571;29;20582;-68
2024/03/04 06:16:49;;;;;;;15.40;9.40;;;5.70;99.90;;;;;;4994561;28;20047;-69
2024/03/04 06:34:30;;;;;;;12.60;6.35;;;6.00;99.90;;;;;;4932214;28;20645;-69
2024/03/04 06:36:59;;;;;;;13.05;7.82;;;6.10;99.90;;;;;;4960896;28;20054;-69
2024/03/04 06:39:25;;;;;;;8.98;6.45;;;6.10;99.90;;;;;;4962666;28;20060;-67
2024/03/04 06:41:54;;;;;;;13.60;8.30;;;6.10;99.90;;;;;;4973665;28;20050;-69
2024/03/04 06:44:19;;;;;;;10.15;6.75;;;6.10;99.90;;;;;;5000803;28;20041;-67
2024/03/04 06:46:46;;;;;;;15.88;9.20;;;6.10;99.90;;;;;;5040681;28;20479;-68
2024/03/04 06:49:12;;;;;;;12.40;8.43;;;6.20;99.90;;;;;;5039692;28;20375;-68
2024/03/04 06:51:38;;;;;;;9.07;4.95;;;6.20;99.90;;;;;;5037918;28;20136;-67
2024/03/04 06:54:08;;;;;;;19.65;10.52;;;6.20;99.90;;;;;;5035978;28;20108;-67
2024/03/04 06:56:33;;;;;;;8.93;6.00;;;6.20;99.90;;;;;;5039951;28;20111;-67
2024/03/04 06:59:00;;;;;;;7.93;5.55;;;6.30;99.90;;;;;;5043755;28;20807;-69
2024/03/04 07:01:26;;;;;;;16.73;8.63;;;6.30;99.90;;;;;;5042856;28;20029;-67
2024/03/04 07:03:53;;;;;;;12.48;8.27;;;6.30;99.90;;;;;;5045916;28;20029;-68
2024/03/04 07:06:19;;;;;;;12.95;8.45;;;6.30;99.90;;;;;;5045736;28;20029;-68
2024/03/04 07:08:45;;;;;;;12.98;9.15;;;6.40;99.90;;;;;;5044749;28;20047;-68
2024/03/04 07:11:15;;;;;;;16.77;8.80;;;6.50;99.90;;;;;;5044967;28;20449;-68
2024/03/04 07:13:41;;;;;;;10.07;5.10;;;6.50;99.90;;;;;;5043783;28;20048;-69
2024/03/04 07:16:07;;;;;;;6.25;4.57;;;6.50;99.90;;;;;;5044630;28;20075;-67
2024/03/04 07:18:36;;;;;;;19.60;9.88;;;6.60;99.90;;;;;;5035510;28;20048;-68
2024/03/04 07:21:02;;;;;;;11.60;8.10;;;6.50;99.90;;;;;;5045480;28;20050;-68
2024/03/04 07:23:28;;;;;;;13.00;8.00;;;6.60;99.90;;;;;;5047068;28;20497;-68
2024/03/04 07:25:54;;;;;;;12.70;6.85;;;6.60;99.90;;;;;;5043459;28;20022;-68
2024/03/04 07:28:20;;;;;;;9.75;7.20;;;6.70;99.90;;;;;;5040899;28;20053;-67
2024/03/04 07:30:46;;;;;;;5.93;4.65;;;6.70;99.90;;;;;;5045833;28;20025;-68
2024/03/04 07:33:13;;;;;;;20.08;11.10;;;6.70;99.90;;;;;;5049563;28;20086;-68
2024/03/04 07:35:39;;;;;;;12.43;8.32;;;6.70;99.90;;;;;;5047497;28;20076;-71
2024/03/04 07:38:39;;;;;;;24.35;11.18;;;6.80;99.90;;;;;;5046469;28;20040;-69
2024/03/04 07:41:06;;;;;;;15.27;9.45;;;6.70;99.90;;;;;;5048495;28;20443;-68
2024/03/04 07:43:32;;;;;;;8.52;6.50;;;6.80;99.90;;;;;;5040453;28;20525;-70
2024/03/04 07:46:53;;;;;;;12.00;6.93;;;6.80;99.90;;;;;;5042265;28;20017;-70
2024/03/04 07:49:22;;;;;;;2.17;2.00;;;6.90;99.90;;;;;;5037622;28;20037;-72
2024/03/04 07:51:48;;;;;;;17.65;8.30;;;6.90;99.90;;;;;;5044855;28;20556;-69
2024/03/04 07:54:17;;;;;;;20.90;8.45;;;6.90;99.90;;;;;;5043195;28;20053;-68
2024/03/04 07:56:42;;;;;;;21.85;10.23;;;7.00;99.90;;;;;;5048926;28;20429;-71
2024/03/04 07:59:08;;;;;;;21.52;11.57;;;7.00;99.90;;;;;;5047801;28;20099;-68
2024/03/04 08:01:34;;;;;;;20.73;10.63;;;7.00;99.90;;;;;;5041777;28;20033;-68
2024/03/04 08:03:59;;;;;;;19.25;9.88;;;7.00;99.90;;;;;;5042912;28;20040;-69
2024/03/04 08:06:25;;;;;;;15.32;9.75;;;7.10;99.90;;;;;;5046734;28;20089;-69
2024/03/04 08:08:51;;;;;;;16.55;9.60;;;7.00;99.90;;;;;;5045368;28;20021;-68
2024/03/04 08:11:17;;;;;;;13.23;6.47;;;7.10;99.90;;;;;;5042057;28;20029;-69
2024/03/04 08:13:43;;;;;;;20.10;9.80;;;7.10;99.90;;;;;;5042538;28;20021;-69
2024/03/04 08:16:08;;;;;;;10.68;5.38;;;7.10;99.90;;;;;;5042941;28;20559;-67
2024/03/04 08:18:34;;;;;;;16.52;8.18;;;7.10;99.90;;;;;;5042295;28;20127;-67
2024/03/04 08:21:00;;;;;;;22.02;10.77;;;7.20;99.90;;;;;;5043149;28;20028;-69
2024/03/04 08:23:25;;;;;;;12.48;8.00;;;7.20;99.90;;;;;;5040224;28;20060;-68
2024/03/04 08:25:51;;;;;;;12.05;7.60;;;7.20;99.90;;;;;;5042133;28;20025;-68
2024/03/04 08:28:17;;;;;;;17.08;8.10;;;7.20;99.90;;;;;;5042046;28;20678;-67
2024/03/04 08:30:43;;;;;;;24.13;11.48;;;7.20;99.90;;;;;;5044514;28;20021;-69
2024/03/04 08:33:08;;;;;;;16.23;7.57;;;7.30;99.90;;;;;;5039278;28;20120;-68
2024/03/04 08:35:34;;;;;;;18.65;10.07;;;7.30;99.90;;;;;;5043631;28;20130;-68
2024/03/04 08:38:00;;;;;;;19.52;11.57;;;7.30;99.90;;;;;;5040556;28;20100;-68
2024/03/04 08:40:26;;;;;;;21.30;9.75;;;7.40;99.90;;;;;;5040538;28;20029;-68
2024/03/04 08:42:52;;;;;;;15.52;9.65;;;7.40;99.90;;;;;;5042814;28;20476;-68
2024/03/04 08:45:18;;;;;;;16.30;8.55;;;7.40;99.90;;;;;;5043660;28;20103;-67
2024/03/04 08:47:43;;;;;;;14.68;8.20;;;7.40;99.90;;;;;;5044180;28;20028;-68
2024/03/04 08:50:09;;;;;;;13.60;8.77;;;7.50;99.90;;;;;;5044762;28;20025;-67
2024/03/04 08:52:35;;;;;;;15.77;10.05;;;7.50;99.90;;;;;;5042918;28;20024;-67
2024/03/04 08:55:01;;;;;;;10.93;6.30;;;7.50;99.90;;;;;;5041159;28;20025;-67
2024/03/04 08:57:27;;;;;;;13.38;8.60;;;7.50;99.90;;;;;;5042710;28;20410;-67
2024/03/04 08:59:52;;;;;;;13.13;7.70;;;7.50;99.90;;;;;;5039180;28;20466;-67
2024/03/04 09:02:18;;;;;;;16.35;7.40;;;7.60;99.90;;;;;;5040922;28;20036;-67
2024/03/04 09:04:49;;;;;;;11.43;7.15;;;7.60;99.90;;;;;;5039557;28;20494;-70
2024/03/04 09:07:15;;;;;;;5.47;4.32;;;7.70;99.90;;;;;;5043238;28;20021;-68
2024/03/04 09:09:42;;;;;;;13.00;7.47;;;7.70;99.90;;;;;;5043486;28;20016;-68
2024/03/04 09:12:08;;;;;;;16.30;9.05;;;7.60;99.90;;;;;;5040659;28;20513;-69
2024/03/04 09:14:34;;;;;;;9.73;6.53;;;7.70;99.90;;;;;;5044853;28;20035;-68
2024/03/04 09:17:00;;;;;;;22.08;11.10;;;7.70;99.90;;;;;;5040668;28;20116;-68
2024/03/04 09:19:26;;;;;;;11.85;6.05;;;7.70;99.90;;;;;;5044452;28;20036;-68
2024/03/04 09:21:52;;;;;;;20.38;11.43;;;7.70;99.90;;;;;;5042121;28;20087;-68
2024/03/04 09:24:18;;;;;;;13.10;6.95;;;7.80;99.90;;;;;;5042591;28;20192;-68
2024/03/04 09:26:47;;;;;;;19.92;11.82;;;7.80;99.90;;;;;;5041686;28;20068;-68
2024/03/04 09:29:12;;;;;;;14.70;9.07;;;7.80;99.90;;;;;;5036247;28;20375;-68
2024/03/04 09:31:42;;;;;;;11.50;5.65;;;7.80;99.90;;;;;;5040713;28;20036;-68
2024/03/04 09:34:07;;;;;;;12.35;8.55;;;7.80;99.90;;;;;;5042943;28;20087;-69
2024/03/04 09:36:33;;;;;;;16.45;8.00;;;7.80;99.90;;;;;;5045166;28;20032;-68
2024/03/04 09:38:59;;;;;;;15.55;8.43;;;7.80;99.90;;;;;;5041585;28;20033;-70
2024/03/04 09:41:25;;;;;;;14.80;9.05;;;7.80;99.90;;;;;;5040856;28;20039;-69
2024/03/04 09:43:52;;;;;;;13.65;7.60;;;7.80;99.90;;;;;;5042832;28;20117;-69
2024/03/04 09:46:19;;;;;;;16.88;10.10;;;7.80;99.90;;;;;;5040571;28;20497;-68
2024/03/04 09:48:47;;;;;;;13.38;7.75;;;7.90;99.90;;;;;;5039531;28;20104;-67
2024/03/04 09:51:14;;;;;;;22.98;12.75;;;7.90;99.90;;;;;;5040050;28;20476;-67
2024/03/04 09:53:40;;;;;;;18.20;7.80;;;7.90;99.90;;;;;;5039361;28;20568;-67
2024/03/04 09:56:07;;;;;;;19.02;11.27;;;7.80;99.90;;;;;;5041385;28;20024;-68
2024/03/04 09:58:33;;;;;;;14.40;7.15;;;7.90;99.90;;;;;;5041504;28;20116;-67
2024/03/04 10:01:00;;;;;;;14.45;8.13;;;7.90;99.90;;;;;;5041566;28;20063;-70
2024/03/04 10:03:28;;;;;;;15.10;8.07;;;7.90;99.90;;;;;;5036279;28;20026;-68
2024/03/04 10:05:55;;;;;;;17.83;11.00;;;7.90;99.90;;;;;;5040671;28;20100;-67
2024/03/04 10:08:22;;;;;;;17.67;11.10;;;7.90;99.90;;;;;;5040573;28;20025;-69
2024/03/04 10:10:51;;;;;;;16.52;8.93;;;7.90;99.90;;;;;;5055188;28;20499;-68
2024/03/04 10:13:18;;;;;;;16.88;10.10;;;7.90;99.90;;;;;;5041323;28;20475;-68
2024/03/04 10:15:48;;;;;;;11.60;6.93;;;8.00;99.90;;;;;;5038363;28;20024;-69
2024/03/04 10:18:16;;;;;;;23.10;10.82;;;8.10;99.90;;;;;;5039369;28;20017;-69
2024/03/04 10:20:43;;;;;;;18.80;10.82;;;8.10;99.90;;;;;;5039167;28;20264;-69
2024/03/04 10:23:10;;;;;;;15.85;7.95;;;8.00;99.90;;;;;;5041252;28;20111;-68
2024/03/04 10:25:35;;;;;;;18.02;9.20;;;8.00;99.90;;;;;;5039207;28;20444;-69
2024/03/04 10:28:02;;;;;;;13.30;6.70;;;8.00;99.90;;;;;;5042055;28;20029;-68
2024/03/04 10:30:28;;;;;;;18.80;7.60;;;8.00;99.90;;;;;;5042946;28;20028;-68
2024/03/04 10:32:55;;;;;;;15.18;9.93;;;8.10;99.90;;;;;;5044518;28;20437;-68
2024/03/04 10:35:22;;;;;;;21.15;12.48;;;8.00;99.90;;;;;;5043271;28;20021;-68
2024/03/04 10:37:49;;;;;;;27.90;12.05;;;8.00;99.90;;;;;;5045288;28;20013;-69
2024/03/04 10:40:19;;;;;;;17.55;9.02;;;8.10;99.90;;;;;;5049618;28;20045;-67
2024/03/04 10:42:46;;;;;;;13.13;6.78;;;8.10;99.90;;;;;;5043488;28;20040;-68
2024/03/04 10:45:13;;;;;;;18.70;9.05;;;8.00;99.90;;;;;;5045231;28;20539;-68
2024/03/04 10:47:41;;;;;;;17.92;9.75;;;8.00;99.90;;;;;;5041451;28;20056;-69
2024/03/04 10:50:08;;;;;;;25.38;16.05;;;8.10;99.90;;;;;;5046157;28;20033;-69
2024/03/04 10:52:34;;;;;;;24.48;11.65;;;8.00;99.90;;;;;;5047721;28;20025;-68
2024/03/04 10:55:00;;;;;;;26.42;13.85;;;8.00;99.90;;;;;;5044507;28;20040;-69
2024/03/04 10:57:31;;;;;;;14.77;10.15;;;8.00;99.90;;;;;;5048232;28;20055;-70
2024/03/04 11:00:02;;;;;;;14.90;8.13;;;8.00;99.90;;;;;;5047853;28;20029;-69
2024/03/04 11:03:11;;;;;;;24.55;10.98;;;8.10;99.90;;;;;;5049401;28;20037;-70
2024/03/04 11:05:42;;;;;;;16.00;9.57;;;8.10;99.90;;;;;;5046586;28;20052;-70
2024/03/04 11:08:15;;;;;;;20.10;9.73;;;8.20;99.90;;;;;;5049473;28;20044;-72
2024/03/04 11:11:23;;;;;;;20.67;10.73;;;8.10;99.90;;;;;;5052635;28;20110;-69
2024/03/04 11:14:03;;;;;;;12.23;7.97;;;8.10;99.90;;;;;;5052391;28;20433;-68
2024/03/04 11:16:48;;;;;;;17.00;8.60;;;8.10;99.90;;;;;;5049309;28;20036;-69
2024/03/04 11:19:29;;;;;;;10.30;6.25;;;8.10;99.90;;;;;;5051428;28;20418;-68
2024/03/04 11:21:56;;;;;;;20.25;12.48;;;8.20;99.90;;;;;;5049673;28;20059;-71
2024/03/04 11:24:27;;;;;;;11.65;6.72;;;8.20;99.90;;;;;;5046329;28;20044;-69
2024/03/04 11:26:54;;;;;;;23.65;11.52;;;8.20;99.90;;;;;;5053750;28;20576;-69
2024/03/04 11:29:21;;;;;;;19.33;8.20;;;8.20;99.90;;;;;;5044539;28;20017;-69
2024/03/04 11:31:55;;;;;;;18.75;11.13;;;8.30;99.90;;;;;;5044023;28;20045;-72
2024/03/04 11:34:21;;;;;;;13.60;8.43;;;8.30;99.90;;;;;;5046287;28;20029;-70
2024/03/04 11:36:50;;;;;;;13.88;7.10;;;8.30;99.90;;;;;;5043742;28;20067;-69
2024/03/04 11:39:20;;;;;;;29.63;10.15;;;8.30;99.90;;;;;;5052211;28;20025;-69
2024/03/04 11:41:55;;;;;;;19.92;10.85;;;8.30;99.90;;;;;;5045561;28;20041;-69
2024/03/04 11:44:27;;;;;;;22.90;11.30;;;8.40;99.90;;;;;;5050891;28;20045;-70
2024/03/04 11:46:56;;;;;;;6.65;4.28;;;8.40;99.90;;;;;;5046303;28;20036;-69
2024/03/04 11:49:23;;;;;;;14.57;6.68;;;8.30;99.90;;;;;;5044949;28;20024;-68
2024/03/04 11:52:20;;;;;;;16.08;8.25;;;8.20;99.90;;;;;;5045211;28;20046;-69
2024/03/04 11:54:48;;;;;;;9.43;5.47;;;8.20;99.90;;;;;;5041681;28;20056;-70
2024/03/04 11:57:17;;;;;;;15.60;7.40;;;8.30;99.90;;;;;;5040848;28;20033;-68
2024/03/04 12:00:13;;;;;;;21.30;10.45;;;8.40;99.90;;;;;;5045792;28;20124;-69
2024/03/04 12:02:40;;;;;;;22.00;8.50;;;8.50;99.90;;;;;;5047039;28;20307;-69
2024/03/04 12:05:09;;;;;;;21.25;10.52;;;8.50;99.90;;;;;;5045616;28;20494;-68
2024/03/04 12:07:35;;;;;;;22.75;10.85;;;8.50;99.90;;;;;;5039844;28;20035;-70
2024/03/04 12:10:05;;;;;;;23.02;11.00;;;8.50;99.90;;;;;;5039104;28;20466;-68
2024/03/04 12:12:31;;;;;;;25.25;10.80;;;8.50;99.90;;;;;;5042077;28;20033;-69
2024/03/04 12:14:57;;;;;;;13.27;6.85;;;8.60;99.90;;;;;;5039791;28;20024;-70
2024/03/04 12:17:22;;;;;;;19.92;10.32;;;8.60;99.90;;;;;;5046804;28;20040;-69
2024/03/04 12:19:56;;;;;;;17.48;8.20;;;8.50;99.90;;;;;;5042576;28;20435;-68
2024/03/04 12:22:28;;;;;;;18.23;7.55;;;8.60;99.90;;;;;;5043994;28;20025;-69
2024/03/04 12:25:06;;;;;;;8.18;4.30;;;8.60;99.90;;;;;;5044919;28;20504;-69
2024/03/04 12:27:33;;;;;;;17.83;8.55;;;8.50;99.90;;;;;;5044170;28;20478;-68
2024/03/04 12:30:19;;;;;;;16.30;7.82;;;8.60;99.90;;;;;;5045810;28;20280;-71
2024/03/04 12:32:53;;;;;;;19.95;9.25;;;8.60;99.90;;;;;;5042789;28;20198;-70
2024/03/04 12:35:32;;;;;;;20.92;9.48;;;8.70;99.90;;;;;;5040875;28;20025;-71
2024/03/04 12:37:59;;;;;;;22.13;10.75;;;8.80;99.90;;;;;;5047412;28;20494;-71
2024/03/04 12:40:26;;;;;;;17.35;9.50;;;8.80;99.90;;;;;;5046023;28;20033;-72
2024/03/04 12:43:01;;;;;;;19.52;7.85;;;8.90;99.90;;;;;;5049080;28;20504;-69
2024/03/04 12:45:28;;;;;;;22.23;11.20;;;8.80;99.90;;;;;;5047521;28;20048;-72
2024/03/04 12:47:57;;;;;;;15.60;8.20;;;8.90;99.90;;;;;;5043980;28;20036;-68
2024/03/04 12:50:24;;;;;;;23.02;9.80;;;8.80;99.90;;;;;;5050704;28;20052;-69
2024/03/04 12:52:50;;;;;;;9.15;5.00;;;8.80;99.90;;;;;;5045323;28;20027;-69
2024/03/04 12:55:17;;;;;;;11.57;6.90;;;9.00;99.90;;;;;;5046611;28;20120;-69
2024/03/04 12:57:44;;;;;;;15.82;7.45;;;8.90;99.90;;;;;;5039678;28;20056;-69
2024/03/04 13:00:14;;;;;;;14.70;6.93;;;8.80;99.90;;;;;;5041055;28;20021;-69
2024/03/04 13:02:44;;;;;;;20.65;9.40;;;8.70;99.90;;;;;;5039329;28;20041;-70
2024/03/04 13:05:11;;;;;;;23.45;9.68;;;8.80;99.90;;;;;;5045193;28;20469;-70
2024/03/04 13:07:38;;;;;;;18.65;8.45;;;8.90;99.90;;;;;;5043281;28;20033;-71
2024/03/04 13:10:06;;;;;;;22.95;9.93;;;9.00;99.90;;;;;;5047846;28;20177;-71
2024/03/04 13:12:36;;;;;;;20.88;9.60;;;9.10;99.90;;;;;;5049982;28;20025;-72
2024/03/04 13:15:06;;;;;;;25.17;8.73;;;8.80;99.90;;;;;;5050659;28;20056;-71